Time;durP1;ratioP1;P1;durP2;ratioP2;P2;SDS_P1;SDS_P2;PMS_P1;PMS_P2;Temp;Humidity;BMP_temperature;BMP_pressure;BME280_temperature;BME280_humidity;BME280_pressure;Samples;Min_cycle;Max_cycle;Signal;HPM_P1;HPM_P2
2022/05/19 00:00:25;;;;;;;1.20;0.65;;;10.50;99.90;;;;;;4981174;28;20030;-73
2022/05/19 00:02:52;;;;;;;0.88;0.60;;;10.50;99.90;;;;;;4985835;28;20031;-72
2022/05/19 00:05:19;;;;;;;2.15;0.77;;;10.50;99.90;;;;;;4985658;28;20101;-73
2022/05/19 00:07:47;;;;;;;2.72;1.00;;;10.60;99.90;;;;;;4997501;28;20022;-73
2022/05/19 00:10:14;;;;;;;2.08;0.60;;;10.60;99.90;;;;;;5001351;28;20023;-73
2022/05/19 00:12:42;;;;;;;1.30;0.47;;;10.60;99.90;;;;;;5012026;28;20113;-74
2022/05/19 00:15:11;;;;;;;5.10;0.95;;;10.70;99.90;;;;;;4984035;28;20374;-72
2022/05/19 00:17:42;;;;;;;1.58;0.50;;;10.70;99.90;;;;;;5008199;28;20022;-74
2022/05/19 00:20:10;;;;;;;2.70;0.70;;;10.80;99.90;;;;;;5008116;28;20382;-74
2022/05/19 00:22:37;;;;;;;1.52;0.77;;;10.80;99.90;;;;;;4994321;28;20054;-74
2022/05/19 00:25:05;;;;;;;5.25;1.05;;;10.80;99.90;;;;;;5011497;28;20054;-73
2022/05/19 00:27:32;;;;;;;2.38;0.82;;;10.90;99.90;;;;;;5001497;28;20029;-73
2022/05/19 00:29:59;;;;;;;1.13;0.40;;;10.90;99.90;;;;;;5004913;28;20023;-74
2022/05/19 00:32:27;;;;;;;2.78;0.80;;;11.10;99.90;;;;;;5010111;28;20129;-73
2022/05/19 00:34:54;;;;;;;2.67;0.70;;;11.10;99.90;;;;;;4999238;28;20109;-74
2022/05/19 00:37:21;;;;;;;0.75;0.63;;;11.20;99.90;;;;;;5009980;28;20023;-73
2022/05/19 00:39:50;;;;;;;1.42;0.68;;;11.20;99.90;;;;;;5004764;28;20022;-74
2022/05/19 00:45:06;;;;;;;0.98;0.50;;;11.40;99.90;;;;;;5009427;28;20042;-73
2022/05/19 00:47:46;;;;;;;2.30;0.82;;;11.50;99.90;;;;;;4986579;28;20500;-73
2022/05/19 00:50:42;;;;;;;4.05;0.73;;;11.60;99.90;;;;;;4985921;28;20085;-73
2022/05/19 00:53:30;;;;;;;0.88;0.60;;;11.80;99.90;;;;;;4982656;28;20046;-73
2022/05/19 00:56:03;;;;;;;3.20;0.70;;;11.80;99.90;;;;;;5004858;28;20045;-74
2022/05/19 00:58:52;;;;;;;3.35;2.17;;;11.80;99.90;;;;;;4992401;28;20022;-73
2022/05/19 01:01:19;;;;;;;5.05;0.80;;;11.80;99.90;;;;;;4987092;28;20023;-74
2022/05/19 01:04:03;;;;;;;3.30;0.60;;;11.80;99.90;;;;;;4987805;28;20023;-73
2022/05/19 01:06:34;;;;;;;2.83;1.05;;;11.80;99.90;;;;;;4991108;28;20026;-74
2022/05/19 01:09:09;;;;;;;2.45;0.70;;;11.90;99.90;;;;;;5011377;28;20160;-73
2022/05/19 01:11:38;;;;;;;1.60;0.80;;;12.00;99.90;;;;;;5002740;28;20030;-74
2022/05/19 01:14:06;;;;;;;2.67;0.90;;;12.10;99.90;;;;;;5003556;28;20442;-74
2022/05/19 01:16:33;;;;;;;2.53;0.68;;;12.10;99.90;;;;;;5010053;28;20038;-73
2022/05/19 01:19:03;;;;;;;1.48;0.52;;;12.10;99.90;;;;;;4997752;28;20023;-73
2022/05/19 01:21:33;;;;;;;3.95;0.95;;;12.20;99.90;;;;;;4998116;28;20029;-74
2022/05/19 01:24:21;;;;;;;1.75;1.13;;;12.20;99.90;;;;;;4989900;28;20502;-72
2022/05/19 01:26:53;;;;;;;3.17;0.73;;;12.20;99.90;;;;;;4995709;28;20097;-74
2022/05/19 01:29:29;;;;;;;3.60;0.73;;;12.20;99.90;;;;;;5009280;28;20049;-74
2022/05/19 01:31:59;;;;;;;0.85;0.50;;;12.30;99.90;;;;;;4995688;28;20125;-74
2022/05/19 01:34:33;;;;;;;1.95;0.85;;;12.30;99.90;;;;;;4995697;28;20386;-74
2022/05/19 01:37:01;;;;;;;1.85;0.70;;;12.40;99.90;;;;;;4995291;28;20026;-74
2022/05/19 01:39:31;;;;;;;3.10;0.57;;;12.50;99.90;;;;;;4996151;28;20026;-74
2022/05/19 01:42:22;;;;;;;2.97;0.70;;;12.60;99.90;;;;;;4996204;28;20379;-75
2022/05/19 01:45:17;;;;;;;4.53;0.60;;;12.70;99.90;;;;;;4996083;28;20391;-72
2022/05/19 01:48:35;;;;;;;1.63;0.70;;;12.80;99.90;;;;;;4994674;28;20084;-74
2022/05/19 01:51:17;;;;;;;3.78;0.70;;;12.80;99.90;;;;;;4976350;28;20100;-72
2022/05/19 01:54:21;;;;;;;2.38;0.80;;;12.80;99.90;;;;;;4993768;28;20038;-73
2022/05/19 01:56:56;;;;;;;2.28;1.00;;;12.80;99.90;;;;;;4993645;28;20494;-73
2022/05/19 01:59:23;;;;;;;2.92;0.85;;;12.90;99.90;;;;;;4993987;28;20045;-73
2022/05/19 02:02:21;;;;;;;2.30;0.70;;;12.90;99.90;;;;;;4994191;28;20097;-74
2022/05/19 02:04:56;;;;;;;2.63;0.75;;;12.90;99.90;;;;;;4974788;28;20396;-74
2022/05/19 02:07:24;;;;;;;1.58;0.70;;;13.00;99.90;;;;;;4995867;28;20026;-73
2022/05/19 02:10:00;;;;;;;2.25;0.85;;;13.20;99.90;;;;;;4995533;28;20022;-73
2022/05/19 02:12:31;;;;;;;1.73;0.77;;;13.40;99.90;;;;;;4995311;28;20472;-73
2022/05/19 02:15:08;;;;;;;3.38;1.10;;;13.50;99.90;;;;;;4995500;28;20477;-73
2022/05/19 02:17:36;;;;;;;4.70;0.68;;;13.50;99.90;;;;;;4995428;28;20101;-74
2022/05/19 02:20:10;;;;;;;1.35;0.73;;;13.60;99.90;;;;;;4989951;28;20571;-74
2022/05/19 02:22:42;;;;;;;2.00;0.85;;;13.80;99.90;;;;;;4994848;28;20034;-74
2022/05/19 02:25:29;;;;;;;3.00;1.08;;;13.80;99.90;;;;;;4995035;28;20026;-74
2022/05/19 02:28:06;;;;;;;1.85;0.82;;;13.80;99.90;;;;;;4995011;28;20494;-74
2022/05/19 02:30:40;;;;;;;1.75;0.70;;;13.80;99.90;;;;;;4990526;28;20031;-73
2022/05/19 02:33:09;;;;;;;2.60;0.95;;;13.70;99.90;;;;;;4984234;28;20026;-73
2022/05/19 02:35:36;;;;;;;2.30;0.90;;;13.80;99.90;;;;;;4984012;28;20022;-74
2022/05/19 02:38:04;;;;;;;3.17;0.70;;;13.80;99.90;;;;;;4983859;28;20101;-73
2022/05/19 02:40:34;;;;;;;3.90;0.65;;;13.80;99.90;;;;;;4986281;28;20502;-73
2022/05/19 02:43:02;;;;;;;2.83;0.85;;;13.80;99.90;;;;;;4994549;28;20049;-73
2022/05/19 02:45:30;;;;;;;2.83;0.95;;;13.90;99.90;;;;;;4994811;28;20022;-73
2022/05/19 02:47:58;;;;;;;1.75;0.60;;;13.80;99.90;;;;;;4994732;28;20031;-74
2022/05/19 02:50:25;;;;;;;1.98;0.82;;;13.80;99.90;;;;;;4994098;28;20046;-73
2022/05/19 02:52:53;;;;;;;3.30;0.75;;;13.70;99.90;;;;;;4994435;28;20058;-73
2022/05/19 02:55:21;;;;;;;1.08;0.50;;;13.70;99.90;;;;;;4994381;28;20546;-74
2022/05/19 02:57:51;;;;;;;1.27;0.50;;;13.70;99.90;;;;;;4994451;28;20034;-73
2022/05/19 03:00:25;;;;;;;2.88;0.82;;;13.70;99.90;;;;;;4994646;28;20030;-73
2022/05/19 03:02:57;;;;;;;2.58;0.90;;;13.70;99.90;;;;;;4994283;28;20030;-73
2022/05/19 03:05:31;;;;;;;8.90;0.82;;;13.70;99.90;;;;;;4994304;28;20038;-74
2022/05/19 03:07:58;;;;;;;0.80;0.50;;;13.70;99.90;;;;;;4994450;28;20110;-73
2022/05/19 03:10:26;;;;;;;2.60;0.73;;;13.80;99.90;;;;;;4994008;28;20019;-73
2022/05/19 03:12:56;;;;;;;1.23;0.65;;;13.90;99.90;;;;;;4994259;28;20041;-73
2022/05/19 03:15:24;;;;;;;1.58;1.00;;;14.00;99.90;;;;;;4994158;28;20034;-73
2022/05/19 03:17:51;;;;;;;1.15;0.47;;;14.00;99.90;;;;;;4993834;28;20030;-73
2022/05/19 03:20:20;;;;;;;5.25;1.33;;;14.00;99.90;;;;;;4993522;28;20018;-73
2022/05/19 03:22:47;;;;;;;1.52;0.65;;;14.00;99.90;;;;;;4993429;28;20026;-73
2022/05/19 03:25:15;;;;;;;4.40;0.70;;;14.00;99.90;;;;;;4994056;28;20552;-73
2022/05/19 03:27:43;;;;;;;4.80;1.23;;;14.10;99.90;;;;;;4994024;28;20022;-73
2022/05/19 03:30:14;;;;;;;1.65;0.82;;;14.10;99.90;;;;;;4993466;28;20026;-73
2022/05/19 03:32:41;;;;;;;1.67;1.05;;;14.20;99.90;;;;;;4994126;28;20116;-73
2022/05/19 03:35:10;;;;;;;3.97;0.90;;;14.20;99.90;;;;;;4993893;28;20368;-74
2022/05/19 03:37:38;;;;;;;1.85;0.70;;;14.20;99.90;;;;;;4994050;28;20054;-73
2022/05/19 03:40:07;;;;;;;5.07;0.70;;;14.30;99.90;;;;;;4993898;28;20026;-74
2022/05/19 03:42:34;;;;;;;1.65;0.60;;;14.30;99.90;;;;;;4993669;28;20018;-74
2022/05/19 03:45:03;;;;;;;1.88;0.63;;;14.30;99.90;;;;;;4993580;28;20062;-73
2022/05/19 03:47:30;;;;;;;2.40;0.80;;;14.30;99.90;;;;;;4993908;28;20077;-74
2022/05/19 03:49:58;;;;;;;3.15;0.60;;;14.30;99.90;;;;;;4993407;28;20076;-73
2022/05/19 03:52:26;;;;;;;3.90;1.13;;;14.30;99.90;;;;;;4993948;28;20035;-74
2022/05/19 03:54:54;;;;;;;3.83;1.00;;;14.20;99.90;;;;;;4993618;28;20471;-73
2022/05/19 03:57:23;;;;;;;1.10;0.30;;;14.20;99.90;;;;;;4993916;28;20027;-73
2022/05/19 03:59:50;;;;;;;1.17;0.50;;;14.20;99.90;;;;;;4993670;28;20097;-73
2022/05/19 04:02:18;;;;;;;2.83;0.35;;;14.20;99.90;;;;;;4993852;28;20027;-71
2022/05/19 04:04:46;;;;;;;3.03;1.10;;;14.20;99.90;;;;;;4987854;28;20056;-73
2022/05/19 04:07:13;;;;;;;2.53;0.52;;;14.30;99.90;;;;;;4984479;28;20022;-74
2022/05/19 04:09:41;;;;;;;0.57;0.30;;;14.30;99.90;;;;;;4991641;28;20053;-74
2022/05/19 04:12:09;;;;;;;2.05;0.63;;;14.30;99.90;;;;;;4992925;28;20118;-74
2022/05/19 04:14:36;;;;;;;1.70;0.40;;;14.30;99.90;;;;;;4981805;28;20059;-73
2022/05/19 04:17:04;;;;;;;2.88;0.68;;;14.20;99.90;;;;;;4983974;28;20026;-73
2022/05/19 04:19:32;;;;;;;2.15;0.52;;;14.10;99.90;;;;;;4983879;28;20015;-73
2022/05/19 04:21:59;;;;;;;1.23;0.63;;;14.10;99.90;;;;;;4982297;28;20031;-73
2022/05/19 04:24:27;;;;;;;1.52;0.70;;;14.10;99.90;;;;;;4975806;28;20023;-73
2022/05/19 04:26:54;;;;;;;1.40;0.40;;;14.00;99.90;;;;;;4973998;28;20027;-74
2022/05/19 04:29:22;;;;;;;1.05;0.63;;;14.10;99.90;;;;;;4983266;28;20113;-73
2022/05/19 04:31:49;;;;;;;0.82;0.35;;;14.10;99.90;;;;;;5002424;28;20103;-73
2022/05/19 04:34:16;;;;;;;1.17;0.50;;;14.10;99.90;;;;;;4998192;28;20026;-73
2022/05/19 04:36:45;;;;;;;0.60;0.32;;;14.10;99.90;;;;;;4993441;28;20495;-73
2022/05/19 04:39:13;;;;;;;0.75;0.38;;;14.20;99.90;;;;;;4989884;28;20046;-72
2022/05/19 04:41:41;;;;;;;0.52;0.43;;;14.30;99.90;;;;;;4993255;28;20468;-72
2022/05/19 04:44:08;;;;;;;1.10;0.40;;;14.30;99.90;;;;;;4993367;28;20030;-73
2022/05/19 04:46:35;;;;;;;0.75;0.40;;;14.30;99.90;;;;;;4993432;28;20022;-72
2022/05/19 04:49:03;;;;;;;3.33;0.50;;;14.30;99.90;;;;;;4993162;28;20105;-73
2022/05/19 04:51:30;;;;;;;2.22;0.60;;;14.20;99.90;;;;;;4993336;28;20408;-73
2022/05/19 04:53:57;;;;;;;0.88;0.40;;;14.10;99.90;;;;;;4996065;28;20027;-72
2022/05/19 04:56:25;;;;;;;8.50;0.55;;;14.00;99.90;;;;;;4996922;28;20026;-73
2022/05/19 04:58:52;;;;;;;0.93;0.55;;;14.00;99.90;;;;;;4996869;28;20089;-73
2022/05/19 05:01:19;;;;;;;2.40;0.40;;;13.90;99.90;;;;;;4997043;28;20030;-73
2022/05/19 05:03:47;;;;;;;3.03;0.55;;;13.80;99.90;;;;;;4996930;28;20105;-73
2022/05/19 05:06:14;;;;;;;0.77;0.30;;;13.80;99.90;;;;;;4996854;28;20073;-72
2022/05/19 05:08:42;;;;;;;3.08;0.40;;;13.70;99.90;;;;;;4997009;28;20378;-73
2022/05/19 05:11:09;;;;;;;2.13;0.60;;;13.60;99.90;;;;;;4996597;28;20117;-72
2022/05/19 05:13:36;;;;;;;2.97;0.50;;;13.50;99.90;;;;;;4996596;28;20036;-72
2022/05/19 05:16:03;;;;;;;2.58;0.65;;;13.50;99.90;;;;;;4996678;28;20093;-73
2022/05/19 05:18:31;;;;;;;0.88;0.43;;;13.60;99.90;;;;;;4996745;28;20019;-72
2022/05/19 05:21:03;;;;;;;0.47;0.32;;;13.60;99.90;;;;;;4996447;28;20046;-73
2022/05/19 05:23:30;;;;;;;1.20;0.70;;;13.70;99.90;;;;;;4996623;28;20066;-72
2022/05/19 05:25:57;;;;;;;2.80;0.98;;;13.80;99.90;;;;;;4996454;28;20371;-73
2022/05/19 05:28:25;;;;;;;0.82;0.40;;;13.80;99.90;;;;;;4996544;28;20022;-72
2022/05/19 05:30:52;;;;;;;3.70;0.65;;;13.90;99.90;;;;;;4996192;28;20034;-72
2022/05/19 05:33:19;;;;;;;1.80;0.50;;;13.90;99.90;;;;;;4996582;28;20345;-73
2022/05/19 05:35:47;;;;;;;1.92;0.60;;;13.90;99.90;;;;;;4996023;28;20030;-72
2022/05/19 05:38:14;;;;;;;6.82;1.00;;;13.80;99.90;;;;;;4996127;28;20113;-73
2022/05/19 05:40:42;;;;;;;2.33;0.50;;;13.80;99.90;;;;;;4995874;28;20468;-72
2022/05/19 05:43:12;;;;;;;2.03;0.43;;;13.70;99.90;;;;;;4996300;28;20026;-72
2022/05/19 05:45:40;;;;;;;3.95;0.32;;;13.70;99.90;;;;;;4996294;28;20029;-73
2022/05/19 05:48:08;;;;;;;1.98;0.55;;;13.70;99.90;;;;;;4996177;28;20026;-72
2022/05/19 05:50:36;;;;;;;1.38;0.65;;;13.70;99.90;;;;;;4986002;28;20050;-73
2022/05/19 05:53:04;;;;;;;5.18;0.80;;;13.60;99.90;;;;;;4976469;28;20064;-72
2022/05/19 05:55:32;;;;;;;1.30;0.47;;;13.60;99.90;;;;;;4976506;28;20435;-72
2022/05/19 05:57:59;;;;;;;2.00;0.50;;;13.50;99.90;;;;;;4976962;28;20077;-72
2022/05/19 06:00:29;;;;;;;1.45;0.50;;;13.50;99.90;;;;;;4977912;28;20035;-72
2022/05/19 06:02:57;;;;;;;2.72;0.50;;;13.40;99.90;;;;;;4976228;28;20407;-73
2022/05/19 06:05:24;;;;;;;2.50;0.70;;;13.40;99.90;;;;;;4975948;28;20483;-73
2022/05/19 06:07:52;;;;;;;2.05;0.60;;;13.40;99.90;;;;;;4976284;28;20026;-73
2022/05/19 06:10:19;;;;;;;3.83;0.50;;;13.30;99.90;;;;;;4976010;28;20038;-73
2022/05/19 06:12:46;;;;;;;0.98;0.43;;;13.30;99.90;;;;;;4976235;28;20122;-73
2022/05/19 06:15:16;;;;;;;1.10;0.40;;;13.20;99.90;;;;;;4978526;28;20458;-72
2022/05/19 06:17:43;;;;;;;2.70;0.70;;;13.10;99.90;;;;;;4976063;28;20421;-73
2022/05/19 06:20:17;;;;;;;0.73;0.30;;;13.10;99.90;;;;;;4976329;28;20023;-73
2022/05/19 06:22:46;;;;;;;2.13;0.50;;;13.00;99.90;;;;;;4976028;28;20026;-72
2022/05/19 06:25:18;;;;;;;1.17;0.40;;;13.00;99.90;;;;;;4975705;28;20031;-73
2022/05/19 06:27:46;;;;;;;2.97;0.40;;;12.90;99.90;;;;;;4975990;28;20031;-73
2022/05/19 06:30:14;;;;;;;0.50;0.40;;;12.90;99.90;;;;;;4975687;28;20035;-72
2022/05/19 06:32:42;;;;;;;1.10;0.38;;;12.80;99.90;;;;;;4975640;28;20573;-72
2022/05/19 06:35:12;;;;;;;3.28;0.70;;;12.80;99.90;;;;;;4975611;28;20034;-72
2022/05/19 06:37:40;;;;;;;1.40;0.63;;;12.80;99.90;;;;;;4975625;28;20035;-73
2022/05/19 06:40:09;;;;;;;1.35;0.68;;;12.80;99.90;;;;;;4984657;28;20154;-73
2022/05/19 06:42:37;;;;;;;1.10;0.60;;;12.70;99.90;;;;;;4983550;28;20515;-73
2022/05/19 06:45:06;;;;;;;6.13;0.85;;;12.70;99.90;;;;;;4984887;28;20027;-73
2022/05/19 06:47:34;;;;;;;2.47;1.00;;;12.70;99.90;;;;;;4985369;28;20026;-72
2022/05/19 06:50:01;;;;;;;6.55;1.02;;;12.60;99.90;;;;;;4983484;28;20109;-72
2022/05/19 06:52:31;;;;;;;2.08;0.80;;;12.60;99.90;;;;;;4986089;28;20089;-73
2022/05/19 06:55:01;;;;;;;3.70;0.82;;;12.60;99.90;;;;;;4983326;28;20109;-73
2022/05/19 06:57:31;;;;;;;2.05;1.17;;;12.50;99.90;;;;;;4984329;28;20029;-73
2022/05/19 06:59:58;;;;;;;2.30;1.00;;;12.50;99.90;;;;;;4985374;28;20020;-73
2022/05/19 07:02:26;;;;;;;7.57;1.35;;;12.50;99.90;;;;;;4984065;28;20090;-74
2022/05/19 07:04:53;;;;;;;2.03;1.33;;;12.40;99.90;;;;;;4985343;28;20038;-74
2022/05/19 07:07:20;;;;;;;2.15;0.95;;;12.40;99.90;;;;;;4980957;28;20081;-73
2022/05/19 07:09:48;;;;;;;0.80;0.60;;;12.40;99.90;;;;;;4981025;28;21491;-73
2022/05/19 07:12:22;;;;;;;6.90;1.13;;;12.30;99.90;;;;;;4986106;28;21375;-74
2022/05/19 07:14:53;;;;;;;4.45;1.20;;;12.30;99.90;;;;;;4980953;28;20022;-73
2022/05/19 07:17:21;;;;;;;2.70;1.02;;;12.40;99.90;;;;;;4980695;28;20065;-74
2022/05/19 07:22:35;;;;;;;1.07;0.87;;;12.40;99.90;;;;;;4986254;28;20412;-73
2022/05/19 07:25:06;;;;;;;5.68;1.00;;;12.40;99.90;;;;;;4986758;28;20260;-73
2022/05/19 07:27:33;;;;;;;1.90;1.00;;;12.30;99.90;;;;;;4981183;28;20513;-74
2022/05/19 07:30:01;;;;;;;2.00;1.25;;;12.30;99.90;;;;;;4980206;28;20093;-73
2022/05/19 07:32:29;;;;;;;4.18;1.20;;;12.30;99.90;;;;;;4987618;28;20458;-73
2022/05/19 07:34:56;;;;;;;3.72;1.88;;;12.20;99.90;;;;;;4992993;28;20057;-74
2022/05/19 07:37:27;;;;;;;1.95;1.10;;;12.20;99.90;;;;;;4992510;28;20034;-73
2022/05/19 07:39:55;;;;;;;5.25;1.40;;;12.20;99.90;;;;;;4990634;28;20073;-74
2022/05/19 07:42:24;;;;;;;2.83;1.42;;;12.30;99.90;;;;;;4993410;28;20018;-74
2022/05/19 07:44:52;;;;;;;2.90;1.23;;;12.30;99.90;;;;;;4993009;28;20023;-74
2022/05/19 07:47:19;;;;;;;3.83;1.25;;;12.20;99.90;;;;;;4987743;28;20022;-74
2022/05/19 07:49:48;;;;;;;2.95;1.08;;;12.20;99.90;;;;;;4984450;28;20126;-74
2022/05/19 07:52:16;;;;;;;3.22;1.30;;;12.20;99.90;;;;;;4983596;28;20026;-74
2022/05/19 07:54:43;;;;;;;8.73;1.63;;;12.20;99.90;;;;;;4982854;28;20038;-74
2022/05/19 07:57:11;;;;;;;3.33;1.08;;;12.20;99.90;;;;;;4980498;28;20109;-74
2022/05/19 07:59:38;;;;;;;1.80;1.13;;;12.10;99.90;;;;;;4983276;28;20015;-75
2022/05/19 08:02:06;;;;;;;7.18;1.42;;;12.10;99.90;;;;;;4982283;28;20031;-74
2022/05/19 08:04:34;;;;;;;1.83;0.73;;;12.00;99.90;;;;;;4984071;28;20019;-74
2022/05/19 08:07:02;;;;;;;2.58;0.88;;;12.00;99.90;;;;;;4983500;28;20472;-74
2022/05/19 08:15:35;;;;;;;2.40;1.00;;;11.90;99.90;;;;;;4983214;28;20038;-75
2022/05/19 08:18:23;;;;;;;1.52;1.05;;;11.90;99.90;;;;;;4984212;28;20431;-74
2022/05/19 08:20:54;;;;;;;1.75;0.88;;;11.90;99.90;;;;;;4981773;28;20050;-74
2022/05/19 08:23:27;;;;;;;3.78;1.67;;;11.80;99.90;;;;;;4982670;28;20443;-74
2022/05/19 08:25:55;;;;;;;5.00;1.27;;;11.80;99.90;;;;;;4983010;28;20023;-73
2022/05/19 08:28:29;;;;;;;3.17;1.00;;;11.80;99.90;;;;;;4986828;28;20480;-74
2022/05/19 08:31:03;;;;;;;4.78;1.30;;;11.70;99.90;;;;;;4987220;28;20030;-73
2022/05/19 08:33:31;;;;;;;7.28;1.45;;;11.80;99.90;;;;;;4985528;28;20022;-74
2022/05/19 08:35:58;;;;;;;3.58;1.60;;;11.70;99.90;;;;;;4978690;28;20050;-74
2022/05/19 08:38:26;;;;;;;3.05;2.00;;;11.80;99.90;;;;;;4976434;28;20023;-74
2022/05/19 08:41:15;;;;;;;6.47;2.80;;;11.70;99.90;;;;;;4976477;28;20019;-74
2022/05/19 08:44:01;;;;;;;4.43;3.03;;;11.70;99.90;;;;;;4982074;28;20031;-74
2022/05/19 08:46:30;;;;;;;;;;;11.70;99.90;;;;;;4977039;28;20019;-73
2022/05/19 08:49:20;;;;;;;2.22;0.93;;;11.70;99.90;;;;;;4976988;28;19906;-74
2022/05/19 08:52:08;;;;;;;2.90;1.88;;;11.70;99.90;;;;;;4976412;28;20458;-74
2022/05/19 08:54:37;;;;;;;3.78;1.20;;;11.70;99.90;;;;;;4976737;28;20018;-73
2022/05/19 08:57:05;;;;;;;3.15;1.65;;;11.70;99.90;;;;;;4976392;28;20553;-73
2022/05/19 08:59:40;;;;;;;2.58;1.05;;;11.70;99.90;;;;;;4980286;28;20023;-73
2022/05/19 09:02:14;;;;;;;1.55;1.02;;;11.70;99.90;;;;;;4983476;28;20101;-74
2022/05/19 09:04:59;;;;;;;4.05;1.58;;;11.60;99.90;;;;;;4980659;28;20542;-75
2022/05/19 09:10:31;;;;;;;5.25;1.50;;;11.70;99.90;;;;;;4976258;28;20054;-73
2022/05/19 09:13:17;;;;;;;3.13;1.48;;;11.70;99.90;;;;;;4992240;28;20392;-74
2022/05/19 09:15:46;;;;;;;4.47;1.60;;;11.70;99.90;;;;;;4976053;28;20027;-74
2022/05/19 09:18:17;;;;;;;7.88;1.63;;;11.70;99.90;;;;;;4980972;28;20501;-74
2022/05/19 09:20:53;;;;;;;1.67;1.10;;;11.70;99.90;;;;;;4975922;28;20427;-74
2022/05/19 09:23:20;;;;;;;;;;;11.70;99.90;;;;;;4976585;28;20033;-74
2022/05/19 09:26:22;;;;;;;2.33;1.10;;;11.70;99.90;;;;;;4975909;28;20005;-74
2022/05/19 09:28:56;;;;;;;1.33;0.90;;;11.70;99.90;;;;;;4967651;28;20070;-74
2022/05/19 09:31:42;;;;;;;5.88;1.02;;;11.60;99.90;;;;;;4975988;28;20383;-74
2022/05/19 09:34:11;;;;;;;3.55;1.30;;;11.60;99.90;;;;;;4990519;28;20022;-75
2022/05/19 09:36:53;;;;;;;2.10;0.70;;;11.60;99.90;;;;;;4993680;28;20360;-75
2022/05/19 09:39:21;;;;;;;1.00;0.90;;;11.50;99.90;;;;;;4976403;28;20031;-75
2022/05/19 09:41:54;;;;;;;2.33;1.10;;;11.50;99.90;;;;;;4974259;28;20093;-74
2022/05/19 09:44:32;;;;;;;1.27;0.90;;;11.60;99.90;;;;;;4974367;28;20022;-74
2022/05/19 09:47:13;;;;;;;2.83;0.98;;;11.60;99.90;;;;;;4988799;28;20026;-74
2022/05/19 09:49:44;;;;;;;1.70;0.60;;;11.60;99.90;;;;;;4979283;28;20524;-75
2022/05/19 09:52:19;;;;;;;4.10;1.35;;;11.60;99.90;;;;;;4974107;28;20586;-75
2022/05/19 09:55:04;;;;;;;3.33;1.13;;;11.60;99.90;;;;;;4974390;28;20050;-75
2022/05/19 09:57:38;;;;;;;2.47;1.00;;;11.50;99.90;;;;;;4975840;28;20380;-75
2022/05/19 10:00:31;;;;;;;1.55;0.70;;;11.50;99.90;;;;;;4975582;28;20022;-75
2022/05/19 10:03:00;;;;;;;1.92;1.00;;;11.50;99.90;;;;;;4965904;28;20031;-75
2022/05/19 10:05:33;;;;;;;2.15;1.00;;;11.50;99.90;;;;;;4975133;28;20073;-75
2022/05/19 10:08:05;;;;;;;4.53;1.58;;;11.50;99.90;;;;;;4975694;28;20022;-75
2022/05/19 10:10:36;;;;;;;3.03;1.00;;;11.50;99.90;;;;;;4975057;28;20023;-73
2022/05/19 10:13:10;;;;;;;3.25;1.17;;;11.50;99.90;;;;;;4975543;28;20026;-74
2022/05/19 10:16:10;;;;;;;3.55;1.02;;;11.50;99.90;;;;;;4977354;28;20023;-74
2022/05/19 10:19:10;;;;;;;1.73;0.85;;;11.50;99.90;;;;;;4984689;28;20030;-74
2022/05/19 10:22:07;;;;;;;4.85;0.98;;;11.50;99.90;;;;;;4967366;28;20039;-74
2022/05/19 10:25:06;;;;;;;4.53;1.67;;;11.60;99.90;;;;;;4977584;28;20042;-74
2022/05/19 10:31:03;;;;;;;3.58;1.20;;;11.60;99.90;;;;;;4967598;28;20085;-73
2022/05/19 10:33:46;;;;;;;2.90;1.15;;;11.60;99.90;;;;;;4975075;28;20101;-73
2022/05/19 10:36:16;;;;;;;4.65;1.13;;;11.50;99.90;;;;;;4993879;28;20364;-74
2022/05/19 10:38:58;;;;;;;5.07;2.05;;;11.40;99.90;;;;;;4994099;28;20535;-74
2022/05/19 10:41:31;;;;;;;3.00;1.60;;;11.30;99.90;;;;;;4977332;28;20498;-74
2022/05/19 10:44:17;;;;;;;3.33;1.92;;;11.30;99.90;;;;;;4974013;28;20033;-73
2022/05/19 10:47:12;;;;;;;6.38;1.98;;;11.20;99.90;;;;;;4974249;28;20066;-74
2022/05/19 10:49:53;;;;;;;5.07;2.45;;;11.20;99.90;;;;;;4974387;28;20126;-75
2022/05/19 10:52:58;;;;;;;2.90;1.38;;;11.10;99.90;;;;;;4981501;28;20040;-74
2022/05/19 10:55:49;;;;;;;3.22;1.38;;;11.10;99.90;;;;;;4990345;28;20021;-74
2022/05/19 10:58:46;;;;;;;3.55;1.23;;;11.00;99.90;;;;;;4993168;28;20080;-74
2022/05/19 11:01:32;;;;;;;2.38;1.33;;;11.00;99.90;;;;;;4971152;28;20069;-74
2022/05/19 11:04:04;;;;;;;4.60;1.83;;;11.00;99.90;;;;;;4974523;28;20380;-74
2022/05/19 11:06:55;;;;;;;5.43;1.50;;;11.00;99.90;;;;;;4974463;28;20046;-74
2022/05/19 11:09:46;;;;;;;2.90;1.50;;;10.90;99.90;;;;;;4974296;28;20027;-73
2022/05/19 11:12:17;;;;;;;4.20;1.58;;;10.90;99.90;;;;;;4974221;28;20035;-74
2022/05/19 11:15:14;;;;;;;2.55;1.45;;;10.90;99.90;;;;;;4973876;28;20387;-74
2022/05/19 11:18:00;;;;;;;4.78;1.30;;;10.90;99.90;;;;;;4973911;28;20118;-74
2022/05/19 11:20:39;;;;;;;3.15;1.45;;;10.90;99.90;;;;;;4974203;28;20026;-74
2022/05/19 11:23:18;;;;;;;3.50;1.70;;;10.90;99.90;;;;;;4973886;28;20117;-73
2022/05/19 11:28:53;;;;;;;3.35;1.30;;;10.90;99.90;;;;;;4974068;28;20026;-73
2022/05/19 11:31:41;;;;;;;2.20;1.17;;;11.00;99.90;;;;;;4973814;28;20133;-73
2022/05/19 11:34:26;;;;;;;4.95;1.52;;;10.90;99.90;;;;;;4973598;28;20099;-74
2022/05/19 11:37:04;;;;;;;4.40;1.40;;;10.90;99.90;;;;;;4973802;28;20058;-73
2022/05/19 11:39:45;;;;;;;3.25;1.40;;;10.90;99.90;;;;;;4973394;28;20101;-74
2022/05/19 11:42:19;;;;;;;1.63;1.13;;;10.90;99.90;;;;;;4973184;28;20015;-74
2022/05/19 11:44:46;;;;;;;1.88;1.17;;;10.90;99.90;;;;;;4973018;28;20015;-74
2022/05/19 11:55:12;;;;;;;3.85;1.52;;;10.90;99.90;;;;;;4973153;28;20034;-73
2022/05/19 11:56:16;;;;;;;2.63;1.30;;;10.90;99.90;;;;;;4973422;28;20046;-74
2022/05/19 11:58:44;;;;;;;4.53;1.50;;;10.90;99.90;;;;;;4973096;28;20023;-74
2022/05/19 12:01:20;;;;;;;2.42;1.42;;;10.90;99.90;;;;;;4973034;28;20015;-74
2022/05/19 12:04:04;;;;;;;2.78;1.30;;;10.90;99.90;;;;;;4982408;28;20506;-74
2022/05/19 12:06:36;;;;;;;4.05;1.58;;;10.80;99.90;;;;;;4978202;28;20023;-74
2022/05/19 12:09:16;;;;;;;2.85;1.42;;;10.80;99.90;;;;;;4976972;28;20019;-74
2022/05/19 12:11:47;;;;;;;3.15;1.50;;;10.70;99.90;;;;;;4976642;28;20081;-74
2022/05/19 12:14:37;;;;;;;3.08;1.70;;;10.70;99.90;;;;;;4976940;28;20022;-74
2022/05/19 12:17:15;;;;;;;4.00;1.60;;;10.70;99.90;;;;;;4976953;28;20022;-74
2022/05/19 12:19:54;;;;;;;4.55;1.60;;;10.70;99.90;;;;;;4975500;28;20073;-74
2022/05/19 12:22:30;;;;;;;7.20;1.60;;;10.70;99.90;;;;;;4977051;28;20067;-73
2022/05/19 12:25:22;;;;;;;5.32;1.75;;;10.70;99.90;;;;;;4976874;28;20019;-73
2022/05/19 12:28:24;;;;;;;3.85;1.63;;;10.70;99.90;;;;;;4976737;28;20098;-73
2022/05/19 12:34:01;;;;;;;2.72;1.35;;;10.70;99.90;;;;;;4976376;28;20506;-73
2022/05/19 12:36:31;;;;;;;2.67;1.40;;;10.70;99.90;;;;;;4976268;28;20065;-73
2022/05/19 12:39:29;;;;;;;5.07;1.75;;;10.70;99.90;;;;;;4976640;28;20018;-73
2022/05/19 12:42:24;;;;;;;2.78;1.15;;;10.70;99.90;;;;;;4941589;28;20065;-73
2022/05/19 12:44:56;;;;;;;4.45;1.60;;;10.70;99.90;;;;;;4976251;28;20023;-74
2022/05/19 12:47:30;;;;;;;2.30;1.65;;;10.60;99.90;;;;;;4976481;28;20476;-73
2022/05/19 12:50:19;;;;;;;3.38;1.25;;;10.60;99.90;;;;;;4976108;28;20051;-73
2022/05/19 12:52:55;;;;;;;3.17;1.20;;;10.60;99.90;;;;;;4976222;28;20031;-72
2022/05/19 12:55:27;;;;;;;1.88;1.50;;;10.70;99.90;;;;;;4976240;28;20209;-73
2022/05/19 12:58:19;;;;;;;2.63;1.20;;;10.70;99.90;;;;;;4976357;28;20025;-73
2022/05/19 13:00:46;;;;;;;5.97;1.77;;;10.70;99.90;;;;;;4976102;28;20025;-73
2022/05/19 13:03:18;;;;;;;3.20;1.88;;;10.70;99.90;;;;;;4979222;28;20059;-74
2022/05/19 13:06:00;;;;;;;3.78;1.00;;;10.70;99.90;;;;;;4994347;28;20080;-73
2022/05/19 13:08:32;;;;;;;3.95;1.73;;;10.70;99.90;;;;;;4992322;28;20076;-72
2022/05/19 13:11:04;;;;;;;5.97;1.95;;;10.70;99.90;;;;;;4994176;28;20102;-73
2022/05/19 13:13:47;;;;;;;3.45;1.58;;;10.70;99.90;;;;;;4993459;28;20050;-72
2022/05/19 13:16:25;;;;;;;3.22;1.52;;;10.70;99.90;;;;;;4994026;28;20096;-73
2022/05/19 13:19:04;;;;;;;2.33;1.27;;;10.60;99.90;;;;;;4990912;28;20019;-74
2022/05/19 13:21:37;;;;;;;5.20;1.63;;;10.60;99.90;;;;;;4984898;28;20077;-74
2022/05/19 13:24:10;;;;;;;4.60;1.13;;;10.50;99.90;;;;;;4987289;28;20057;-74
2022/05/19 13:26:41;;;;;;;3.47;2.00;;;10.50;99.90;;;;;;4986714;28;20102;-72
2022/05/19 13:32:02;;;;;;;4.43;1.70;;;10.40;99.90;;;;;;4986084;28;20045;-72
2022/05/19 13:34:51;;;;;;;4.45;2.30;;;10.40;99.90;;;;;;4985545;28;20022;-72
2022/05/19 13:37:33;;;;;;;3.80;1.92;;;10.40;99.90;;;;;;4986264;28;20495;-75
2022/05/19 13:40:28;;;;;;;5.53;2.28;;;10.30;99.90;;;;;;4986910;28;20027;-75
2022/05/19 13:43:35;;;;;;;3.92;1.90;;;10.30;99.90;;;;;;4985748;28;20026;-72
2022/05/19 13:46:13;;;;;;;3.90;1.80;;;10.20;99.90;;;;;;4984622;28;20057;-74
2022/05/19 13:48:51;;;;;;;8.00;2.13;;;10.20;99.90;;;;;;4986723;28;20142;-73
2022/05/19 13:51:22;;;;;;;4.03;1.80;;;10.10;99.90;;;;;;4985997;28;20046;-73
2022/05/19 13:54:02;;;;;;;4.32;2.05;;;10.10;99.90;;;;;;4976437;28;20046;-72